sensor_id;sensor_type;location;lat;lon;timestamp;pressure;altitude;pressure_sealevel;temperature;humidity
28626;BME280;18905;42.668;23.364;2023-06-19T00:01:26;95178.94;;;19.07;100.00
28626;BME280;18905;42.668;23.364;2023-06-19T00:03:52;95134.50;;;18.87;100.00
28626;BME280;18905;42.668;23.364;2023-06-19T00:06:17;95180.03;;;19.02;100.00
28626;BME280;18905;42.668;23.364;2023-06-19T00:08:43;95174.25;;;18.81;100.00
28626;BME280;18905;42.668;23.364;2023-06-19T00:11:08;95162.16;;;19.08;100.00
28626;BME280;18905;42.668;23.364;2023-06-19T00:13:34;95165.25;;;19.07;100.00
28626;BME280;18905;42.668;23.364;2023-06-19T00:16:00;95158.78;;;18.92;100.00
28626;BME280;18905;42.668;23.364;2023-06-19T00:18:26;95165.47;;;19.21;100.00
28626;BME280;18905;42.668;23.364;2023-06-19T00:20:52;95164.25;;;18.92;100.00
28626;BME280;18905;42.668;23.364;2023-06-19T00:23:19;95113.31;;;18.58;100.00
28626;BME280;18905;42.668;23.364;2023-06-19T00:25:45;95119.00;;;18.46;100.00
28626;BME280;18905;42.668;23.364;2023-06-19T00:28:10;95156.38;;;18.39;100.00
28626;BME280;18905;42.668;23.364;2023-06-19T00:30:39;95116.84;;;18.59;100.00
28626;BME280;18905;42.668;23.364;2023-06-19T00:33:05;95168.81;;;18.59;100.00
28626;BME280;18905;42.668;23.364;2023-06-19T00:35:30;95170.25;;;18.75;100.00
28626;BME280;18905;42.668;23.364;2023-06-19T00:37:55;95134.22;;;18.25;100.00
28626;BME280;18905;42.668;23.364;2023-06-19T00:40:26;95113.38;;;17.94;100.00
28626;BME280;18905;42.668;23.364;2023-06-19T00:42:53;95118.53;;;17.99;100.00
28626;BME280;18905;42.668;23.364;2023-06-19T00:45:18;95109.19;;;18.23;100.00
28626;BME280;18905;42.668;23.364;2023-06-19T00:47:44;95094.31;;;18.20;100.00
28626;BME280;18905;42.668;23.364;2023-06-19T00:50:10;95063.44;;;18.20;100.00
28626;BME280;18905;42.668;23.364;2023-06-19T00:52:36;95107.13;;;18.16;100.00
28626;BME280;18905;42.668;23.364;2023-06-19T00:55:04;95162.91;;;19.05;100.00
28626;BME280;18905;42.668;23.364;2023-06-19T00:57:30;95138.91;;;18.69;100.00
28626;BME280;18905;42.668;23.364;2023-06-19T00:59:57;95100.16;;;18.41;100.00
28626;BME280;18905;42.668;23.364;2023-06-19T01:02:22;95075.88;;;18.36;100.00
28626;BME280;18905;42.668;23.364;2023-06-19T01:04:52;95062.56;;;18.35;100.00
28626;BME280;18905;42.668;23.364;2023-06-19T01:08:10;95095.97;;;18.25;100.00
28626;BME280;18905;42.668;23.364;2023-06-19T01:10:11;95142.94;;;18.79;100.00
28626;BME280;18905;42.668;23.364;2023-06-19T01:12:42;95111.25;;;18.52;100.00
28626;BME280;18905;42.668;23.364;2023-06-19T01:15:14;95091.97;;;18.67;100.00
28626;BME280;18905;42.668;23.364;2023-06-19T01:17:40;95129.91;;;18.69;100.00
28626;BME280;18905;42.668;23.364;2023-06-19T01:20:06;95139.19;;;18.90;100.00
28626;BME280;18905;42.668;23.364;2023-06-19T01:22:36;95104.34;;;18.58;100.00
28626;BME280;18905;42.668;23.364;2023-06-19T01:25:02;95143.00;;;19.08;100.00
28626;BME280;18905;42.668;23.364;2023-06-19T01:27:29;95091.22;;;18.96;100.00
28626;BME280;18905;42.668;23.364;2023-06-19T01:29:56;95087.00;;;19.02;100.00
28626;BME280;18905;42.668;23.364;2023-06-19T01:34:54;95086.97;;;18.99;100.00
28626;BME280;18905;42.668;23.364;2023-06-19T01:37:24;95119.41;;;19.26;100.00
28626;BME280;18905;42.668;23.364;2023-06-19T01:39:53;95136.03;;;19.40;100.00
28626;BME280;18905;42.668;23.364;2023-06-19T01:42:19;95114.75;;;19.27;100.00
28626;BME280;18905;42.668;23.364;2023-06-19T01:44:45;95105.25;;;19.21;100.00
28626;BME280;18905;42.668;23.364;2023-06-19T01:47:11;95154.88;;;19.45;100.00
28626;BME280;18905;42.668;23.364;2023-06-19T01:49:37;95147.41;;;19.42;100.00
28626;BME280;18905;42.668;23.364;2023-06-19T01:52:03;95138.69;;;19.33;100.00
28626;BME280;18905;42.668;23.364;2023-06-19T01:54:29;95133.09;;;19.26;100.00
28626;BME280;18905;42.668;23.364;2023-06-19T01:56:54;95088.56;;;19.03;100.00
28626;BME280;18905;42.668;23.364;2023-06-19T01:59:20;95115.38;;;19.17;100.00
28626;BME280;18905;42.668;23.364;2023-06-19T02:01:46;95162.69;;;19.43;100.00
28626;BME280;18905;42.668;23.364;2023-06-19T02:04:12;95144.56;;;19.35;100.00
28626;BME280;18905;42.668;23.364;2023-06-19T02:06:37;95158.72;;;19.41;100.00
28626;BME280;18905;42.668;23.364;2023-06-19T02:09:02;95140.41;;;19.19;100.00
28626;BME280;18905;42.668;23.364;2023-06-19T02:11:28;95107.66;;;18.96;100.00
28626;BME280;18905;42.668;23.364;2023-06-19T02:13:53;95139.59;;;19.18;100.00
28626;BME280;18905;42.668;23.364;2023-06-19T02:16:18;95100.50;;;18.88;100.00
28626;BME280;18905;42.668;23.364;2023-06-19T02:18:44;95157.88;;;19.37;100.00
28626;BME280;18905;42.668;23.364;2023-06-19T02:21:09;95148.09;;;19.36;100.00
28626;BME280;18905;42.668;23.364;2023-06-19T02:23:34;95161.03;;;19.39;100.00
28626;BME280;18905;42.668;23.364;2023-06-19T02:26:00;95154.28;;;19.29;100.00
28626;BME280;18905;42.668;23.364;2023-06-19T02:28:25;95115.00;;;18.92;100.00
28626;BME280;18905;42.668;23.364;2023-06-19T02:30:53;95174.16;;;19.26;100.00
28626;BME280;18905;42.668;23.364;2023-06-19T02:33:19;95149.75;;;18.88;100.00
28626;BME280;18905;42.668;23.364;2023-06-19T02:35:44;95131.59;;;18.54;100.00
28626;BME280;18905;42.668;23.364;2023-06-19T02:38:10;95159.66;;;18.74;100.00
28626;BME280;18905;42.668;23.364;2023-06-19T02:40:36;95180.41;;;19.01;100.00
28626;BME280;18905;42.668;23.364;2023-06-19T02:43:01;95167.38;;;18.91;100.00
28626;BME280;18905;42.668;23.364;2023-06-19T02:45:27;95168.03;;;18.84;100.00
28626;BME280;18905;42.668;23.364;2023-06-19T02:47:52;95137.25;;;18.65;100.00
28626;BME280;18905;42.668;23.364;2023-06-19T02:50:18;95092.38;;;18.43;100.00
28626;BME280;18905;42.668;23.364;2023-06-19T02:52:43;95169.25;;;18.87;100.00
28626;BME280;18905;42.668;23.364;2023-06-19T02:55:09;95112.78;;;18.49;100.00
28626;BME280;18905;42.668;23.364;2023-06-19T02:57:34;95147.09;;;18.69;100.00
28626;BME280;18905;42.668;23.364;2023-06-19T03:00:00;95109.00;;;18.57;100.00
28626;BME280;18905;42.668;23.364;2023-06-19T03:02:25;95169.09;;;19.02;100.00
28626;BME280;18905;42.668;23.364;2023-06-19T03:04:52;95199.97;;;19.25;100.00
28626;BME280;18905;42.668;23.364;2023-06-19T03:07:17;95175.94;;;19.41;100.00
28626;BME280;18905;42.668;23.364;2023-06-19T03:09:43;95117.66;;;19.15;100.00
28626;BME280;18905;42.668;23.364;2023-06-19T03:12:09;95169.00;;;19.47;100.00
28626;BME280;18905;42.668;23.364;2023-06-19T03:14:34;95155.28;;;19.47;100.00
28626;BME280;18905;42.668;23.364;2023-06-19T03:17:00;95129.44;;;19.19;100.00
28626;BME280;18905;42.668;23.364;2023-06-19T03:19:25;95155.63;;;19.42;100.00
28626;BME280;18905;42.668;23.364;2023-06-19T03:21:50;95171.06;;;19.57;100.00
28626;BME280;18905;42.668;23.364;2023-06-19T03:24:16;95142.06;;;19.53;100.00
28626;BME280;18905;42.668;23.364;2023-06-19T03:26:41;95175.31;;;19.84;100.00
28626;BME280;18905;42.668;23.364;2023-06-19T03:29:07;95171.16;;;19.97;100.00
28626;BME280;18905;42.668;23.364;2023-06-19T03:31:32;95133.47;;;19.87;100.00
28626;BME280;18905;42.668;23.364;2023-06-19T03:33:57;95132.34;;;19.92;100.00
28626;BME280;18905;42.668;23.364;2023-06-19T03:36:23;95078.28;;;19.52;100.00
28626;BME280;18905;42.668;23.364;2023-06-19T03:38:48;95174.28;;;20.32;100.00
28626;BME280;18905;42.668;23.364;2023-06-19T03:41:14;95165.78;;;20.41;100.00
28626;BME280;18905;42.668;23.364;2023-06-19T03:43:39;95167.56;;;20.66;100.00
28626;BME280;18905;42.668;23.364;2023-06-19T03:46:05;95188.25;;;20.97;100.00
28626;BME280;18905;42.668;23.364;2023-06-19T03:48:30;95174.59;;;21.08;100.00
28626;BME280;18905;42.668;23.364;2023-06-19T03:50:56;95120.22;;;20.76;100.00
28626;BME280;18905;42.668;23.364;2023-06-19T03:53:22;95188.09;;;21.34;100.00
28626;BME280;18905;42.668;23.364;2023-06-19T03:55:47;95059.41;;;20.67;100.00
28626;BME280;18905;42.668;23.364;2023-06-19T03:58:13;95156.94;;;21.05;100.00
28626;BME280;18905;42.668;23.364;2023-06-19T04:00:38;95175.31;;;20.98;100.00
28626;BME280;18905;42.668;23.364;2023-06-19T04:03:03;95104.97;;;19.95;100.00
28626;BME280;18905;42.668;23.364;2023-06-19T04:05:29;95166.84;;;20.29;100.00
28626;BME280;18905;42.668;23.364;2023-06-19T04:07:54;95170.31;;;20.66;100.00
28626;BME280;18905;42.668;23.364;2023-06-19T04:10:20;95147.19;;;20.67;100.00
28626;BME280;18905;42.668;23.364;2023-06-19T04:12:45;95177.56;;;20.88;100.00
28626;BME280;18905;42.668;23.364;2023-06-19T04:15:11;95140.66;;;20.82;100.00
28626;BME280;18905;42.668;23.364;2023-06-19T04:17:36;95163.84;;;20.88;100.00
28626;BME280;18905;42.668;23.364;2023-06-19T04:20:03;95144.13;;;20.76;100.00
28626;BME280;18905;42.668;23.364;2023-06-19T04:22:36;95150.81;;;20.78;100.00
28626;BME280;18905;42.668;23.364;2023-06-19T04:25:02;95181.72;;;21.16;100.00
28626;BME280;18905;42.668;23.364;2023-06-19T04:27:27;95074.66;;;20.61;100.00
28626;BME280;18905;42.668;23.364;2023-06-19T04:29:53;95106.25;;;20.92;100.00
28626;BME280;18905;42.668;23.364;2023-06-19T04:32:18;95123.72;;;21.28;100.00
28626;BME280;18905;42.668;23.364;2023-06-19T04:34:44;95176.25;;;21.94;100.00
28626;BME280;18905;42.668;23.364;2023-06-19T04:37:11;95072.81;;;21.48;100.00
28626;BME280;18905;42.668;23.364;2023-06-19T04:39:36;95157.47;;;22.14;100.00
28626;BME280;18905;42.668;23.364;2023-06-19T04:42:02;95074.16;;;21.96;100.00
28626;BME280;18905;42.668;23.364;2023-06-19T04:44:27;95041.44;;;21.49;100.00
28626;BME280;18905;42.668;23.364;2023-06-19T04:46:55;95185.81;;;22.32;100.00
28626;BME280;18905;42.668;23.364;2023-06-19T04:49:29;95060.59;;;21.35;100.00
28626;BME280;18905;42.668;23.364;2023-06-19T04:51:57;95175.91;;;22.03;100.00
28626;BME280;18905;42.668;23.364;2023-06-19T04:54:24;95158.22;;;21.97;100.00
28626;BME280;18905;42.668;23.364;2023-06-19T04:56:49;95120.81;;;21.71;100.00
28626;BME280;18905;42.668;23.364;2023-06-19T04:59:15;95150.66;;;21.76;100.00
28626;BME280;18905;42.668;23.364;2023-06-19T05:01:43;95110.63;;;21.72;100.00
28626;BME280;18905;42.668;23.364;2023-06-19T05:04:09;95126.31;;;21.75;100.00
28626;BME280;18905;42.668;23.364;2023-06-19T05:06:36;95135.41;;;21.93;100.00
28626;BME280;18905;42.668;23.364;2023-06-19T05:09:01;95169.66;;;22.20;100.00
28626;BME280;18905;42.668;23.364;2023-06-19T05:11:26;95155.91;;;22.20;100.00
28626;BME280;18905;42.668;23.364;2023-06-19T05:13:52;95137.06;;;22.18;100.00
28626;BME280;18905;42.668;23.364;2023-06-19T05:16:17;95162.72;;;22.96;100.00
28626;BME280;18905;42.668;23.364;2023-06-19T05:18:44;95115.53;;;22.59;100.00
28626;BME280;18905;42.668;23.364;2023-06-19T05:21:10;95182.38;;;22.91;100.00
28626;BME280;18905;42.668;23.364;2023-06-19T05:23:36;95183.16;;;23.40;100.00
28626;BME280;18905;42.668;23.364;2023-06-19T05:26:01;95157.03;;;23.94;97.39
28626;BME280;18905;42.668;23.364;2023-06-19T05:28:27;95178.75;;;23.74;96.53
28626;BME280;18905;42.668;23.364;2023-06-19T05:30:52;95195.38;;;24.50;99.50
28626;BME280;18905;42.668;23.364;2023-06-19T05:33:18;95199.31;;;24.52;92.63
28626;BME280;18905;42.668;23.364;2023-06-19T05:35:43;95193.59;;;24.12;91.59
28626;BME280;18905;42.668;23.364;2023-06-19T05:38:16;95197.91;;;24.20;97.97
28626;BME280;18905;42.668;23.364;2023-06-19T05:40:41;95200.34;;;24.04;89.26
28626;BME280;18905;42.668;23.364;2023-06-19T05:43:06;95187.69;;;24.13;91.48
28626;BME280;18905;42.668;23.364;2023-06-19T05:45:32;95196.50;;;23.63;94.49
28626;BME280;18905;42.668;23.364;2023-06-19T05:47:57;95193.28;;;23.96;88.69
28626;BME280;18905;42.668;23.364;2023-06-19T05:50:22;95189.09;;;24.46;92.17
28626;BME280;18905;42.668;23.364;2023-06-19T05:52:48;95193.50;;;24.98;90.45
28626;BME280;18905;42.668;23.364;2023-06-19T05:55:13;95180.28;;;24.68;83.30
28626;BME280;18905;42.668;23.364;2023-06-19T05:57:38;95189.88;;;23.36;89.74
28626;BME280;18905;42.668;23.364;2023-06-19T06:00:05;95160.69;;;22.44;98.22
28626;BME280;18905;42.668;23.364;2023-06-19T06:02:31;95188.66;;;23.02;100.00
28626;BME280;18905;42.668;23.364;2023-06-19T06:04:57;95198.81;;;23.82;96.17
28626;BME280;18905;42.668;23.364;2023-06-19T06:07:22;95187.13;;;23.36;97.22
28626;BME280;18905;42.668;23.364;2023-06-19T06:09:48;95170.19;;;23.30;100.00
28626;BME280;18905;42.668;23.364;2023-06-19T06:12:13;95156.41;;;23.30;95.73
28626;BME280;18905;42.668;23.364;2023-06-19T06:14:40;95209.13;;;23.01;100.00
28626;BME280;18905;42.668;23.364;2023-06-19T06:17:06;95152.50;;;22.89;100.00
28626;BME280;18905;42.668;23.364;2023-06-19T06:19:32;95187.88;;;22.70;100.00
28626;BME280;18905;42.668;23.364;2023-06-19T06:21:57;95186.28;;;22.51;99.92
28626;BME280;18905;42.668;23.364;2023-06-19T06:24:22;95140.59;;;22.15;100.00
28626;BME280;18905;42.668;23.364;2023-06-19T06:26:48;95124.56;;;22.59;100.00
28626;BME280;18905;42.668;23.364;2023-06-19T06:29:13;95201.63;;;22.59;100.00
28626;BME280;18905;42.668;23.364;2023-06-19T06:31:39;95184.94;;;22.07;100.00
28626;BME280;18905;42.668;23.364;2023-06-19T06:34:06;95139.81;;;22.22;100.00
28626;BME280;18905;42.668;23.364;2023-06-19T06:36:32;95154.78;;;22.42;97.25
28626;BME280;18905;42.668;23.364;2023-06-19T06:38:57;95211.25;;;21.97;100.00
28626;BME280;18905;42.668;23.364;2023-06-19T06:41:23;95183.88;;;22.43;100.00
28626;BME280;18905;42.668;23.364;2023-06-19T06:43:48;95147.00;;;23.00;98.27
28626;BME280;18905;42.668;23.364;2023-06-19T06:46:13;95130.06;;;22.80;99.55
28626;BME280;18905;42.668;23.364;2023-06-19T06:48:39;95189.88;;;23.25;97.70
28626;BME280;18905;42.668;23.364;2023-06-19T06:51:05;95221.28;;;22.58;97.69
28626;BME280;18905;42.668;23.364;2023-06-19T06:53:31;95212.28;;;22.89;100.00
28626;BME280;18905;42.668;23.364;2023-06-19T06:55:59;95221.72;;;22.84;98.18
28626;BME280;18905;42.668;23.364;2023-06-19T06:58:26;95221.72;;;22.81;91.62
28626;BME280;18905;42.668;23.364;2023-06-19T07:00:51;95200.09;;;22.83;93.91
28626;BME280;18905;42.668;23.364;2023-06-19T07:03:17;95209.13;;;22.73;100.00
28626;BME280;18905;42.668;23.364;2023-06-19T07:05:43;95204.41;;;22.73;93.68
28626;BME280;18905;42.668;23.364;2023-06-19T07:08:09;95218.22;;;23.22;92.72
28626;BME280;18905;42.668;23.364;2023-06-19T07:10:34;95181.19;;;22.64;98.21
28626;BME280;18905;42.668;23.364;2023-06-19T07:13:00;95184.34;;;23.39;97.11
28626;BME280;18905;42.668;23.364;2023-06-19T07:15:25;95167.00;;;23.39;93.33
28626;BME280;18905;42.668;23.364;2023-06-19T07:17:50;95215.09;;;24.52;90.59
28626;BME280;18905;42.668;23.364;2023-06-19T07:20:16;95181.16;;;24.55;79.47
28626;BME280;18905;42.668;23.364;2023-06-19T07:22:42;95188.88;;;24.81;82.80
28626;BME280;18905;42.668;23.364;2023-06-19T07:25:09;95206.16;;;24.27;87.48
28626;BME280;18905;42.668;23.364;2023-06-19T07:27:36;95204.91;;;25.03;81.24
28626;BME280;18905;42.668;23.364;2023-06-19T07:30:01;95158.44;;;24.30;83.80
28626;BME280;18905;42.668;23.364;2023-06-19T07:32:26;95181.09;;;24.69;81.88
28626;BME280;18905;42.668;23.364;2023-06-19T07:34:53;95188.13;;;24.80;77.47
28626;BME280;18905;42.668;23.364;2023-06-19T07:37:18;95216.25;;;25.16;80.29
28626;BME280;18905;42.668;23.364;2023-06-19T07:39:47;95169.97;;;24.76;78.97
28626;BME280;18905;42.668;23.364;2023-06-19T07:42:14;95219.66;;;24.83;79.25
28626;BME280;18905;42.668;23.364;2023-06-19T07:44:40;95225.19;;;24.83;86.80
28626;BME280;18905;42.668;23.364;2023-06-19T07:47:06;95219.78;;;24.62;83.06
28626;BME280;18905;42.668;23.364;2023-06-19T07:49:31;95165.03;;;24.50;82.84
28626;BME280;18905;42.668;23.364;2023-06-19T07:51:57;95217.78;;;24.66;78.98
28626;BME280;18905;42.668;23.364;2023-06-19T07:54:22;95163.47;;;23.42;77.84
28626;BME280;18905;42.668;23.364;2023-06-19T07:56:47;95177.47;;;24.07;76.77
28626;BME280;18905;42.668;23.364;2023-06-19T07:59:13;95205.78;;;24.14;76.42
28626;BME280;18905;42.668;23.364;2023-06-19T08:01:39;95232.88;;;24.44;80.98
28626;BME280;18905;42.668;23.364;2023-06-19T08:04:06;95211.91;;;24.53;80.49
28626;BME280;18905;42.668;23.364;2023-06-19T08:06:32;95218.97;;;24.58;77.42
28626;BME280;18905;42.668;23.364;2023-06-19T08:08:57;95157.69;;;24.84;73.05
28626;BME280;18905;42.668;23.364;2023-06-19T08:11:23;95208.25;;;25.72;71.13
28626;BME280;18905;42.668;23.364;2023-06-19T08:13:48;95182.81;;;25.51;73.01
28626;BME280;18905;42.668;23.364;2023-06-19T08:16:14;95205.66;;;25.07;69.55
28626;BME280;18905;42.668;23.364;2023-06-19T08:18:39;95150.75;;;23.90;75.39
28626;BME280;18905;42.668;23.364;2023-06-19T08:21:05;95224.22;;;24.42;73.46
28626;BME280;18905;42.668;23.364;2023-06-19T08:23:30;95196.34;;;24.19;71.54
28626;BME280;18905;42.668;23.364;2023-06-19T08:25:56;95175.25;;;24.56;74.13
28626;BME280;18905;42.668;23.364;2023-06-19T08:28:21;95209.25;;;24.32;78.37
28626;BME280;18905;42.668;23.364;2023-06-19T08:30:46;95194.06;;;24.75;76.31
28626;BME280;18905;42.668;23.364;2023-06-19T08:33:13;95182.66;;;25.21;75.17
28626;BME280;18905;42.668;23.364;2023-06-19T08:35:39;95212.28;;;25.64;72.07
28626;BME280;18905;42.668;23.364;2023-06-19T08:38:04;95209.94;;;26.00;70.87
28626;BME280;18905;42.668;23.364;2023-06-19T08:40:30;95214.44;;;25.87;64.86
28626;BME280;18905;42.668;23.364;2023-06-19T08:42:55;95211.63;;;25.50;64.25
28626;BME280;18905;42.668;23.364;2023-06-19T08:45:21;95146.47;;;25.52;70.49
28626;BME280;18905;42.668;23.364;2023-06-19T08:47:48;95156.38;;;25.46;59.46
28626;BME280;18905;42.668;23.364;2023-06-19T08:50:15;95222.63;;;25.97;61.69
28626;BME280;18905;42.668;23.364;2023-06-19T08:52:40;95204.78;;;25.65;65.64
28626;BME280;18905;42.668;23.364;2023-06-19T08:55:06;95173.31;;;25.52;59.49
28626;BME280;18905;42.668;23.364;2023-06-19T08:57:37;95217.25;;;25.39;58.55
28626;BME280;18905;42.668;23.364;2023-06-19T09:00:03;95176.81;;;25.56;58.84
28626;BME280;18905;42.668;23.364;2023-06-19T09:02:42;95211.53;;;26.01;67.38
28626;BME280;18905;42.668;23.364;2023-06-19T09:05:16;95210.91;;;25.83;69.92
28626;BME280;18905;42.668;23.364;2023-06-19T09:07:43;95161.16;;;24.98;62.87
28626;BME280;18905;42.668;23.364;2023-06-19T09:10:16;95148.13;;;25.43;66.34
28626;BME280;18905;42.668;23.364;2023-06-19T09:12:43;95163.69;;;25.63;59.72
28626;BME280;18905;42.668;23.364;2023-06-19T09:15:14;95210.44;;;25.88;63.52
28626;BME280;18905;42.668;23.364;2023-06-19T09:17:39;95193.97;;;25.77;64.02
28626;BME280;18905;42.668;23.364;2023-06-19T09:20:05;95186.94;;;25.29;62.75
28626;BME280;18905;42.668;23.364;2023-06-19T09:22:32;95182.03;;;25.47;60.49
28626;BME280;18905;42.668;23.364;2023-06-19T09:25:01;95206.34;;;25.66;60.94
28626;BME280;18905;42.668;23.364;2023-06-19T09:27:32;95209.69;;;25.47;63.68
28626;BME280;18905;42.668;23.364;2023-06-19T09:29:58;95204.63;;;25.79;57.44
28626;BME280;18905;42.668;23.364;2023-06-19T09:32:26;95180.09;;;25.81;61.90
28626;BME280;18905;42.668;23.364;2023-06-19T09:34:53;95211.56;;;26.61;57.99
28626;BME280;18905;42.668;23.364;2023-06-19T09:37:26;95207.41;;;26.76;62.53
28626;BME280;18905;42.668;23.364;2023-06-19T09:39:54;95132.28;;;26.44;56.50
28626;BME280;18905;42.668;23.364;2023-06-19T09:42:26;95183.31;;;26.99;57.55
28626;BME280;18905;42.668;23.364;2023-06-19T09:44:55;95173.75;;;25.84;59.29
28626;BME280;18905;42.668;23.364;2023-06-19T09:47:25;95113.25;;;25.86;56.79
28626;BME280;18905;42.668;23.364;2023-06-19T09:49:55;95203.94;;;26.08;60.52
28626;BME280;18905;42.668;23.364;2023-06-19T09:52:22;95154.94;;;26.05;59.29
28626;BME280;18905;42.668;23.364;2023-06-19T09:54:52;95194.63;;;26.82;55.32
28626;BME280;18905;42.668;23.364;2023-06-19T09:57:18;95202.66;;;26.76;52.08
28626;BME280;18905;42.668;23.364;2023-06-19T09:59:46;95156.28;;;25.90;63.16
28626;BME280;18905;42.668;23.364;2023-06-19T10:02:12;95197.84;;;25.46;57.31
28626;BME280;18905;42.668;23.364;2023-06-19T10:07:17;95169.91;;;26.68;56.59
28626;BME280;18905;42.668;23.364;2023-06-19T10:09:57;95139.34;;;26.18;55.86
28626;BME280;18905;42.668;23.364;2023-06-19T10:15:11;95174.31;;;27.18;54.71
28626;BME280;18905;42.668;23.364;2023-06-19T10:17:38;95119.25;;;26.41;52.27
28626;BME280;18905;42.668;23.364;2023-06-19T10:20:21;95177.53;;;26.87;50.76
28626;BME280;18905;42.668;23.364;2023-06-19T10:23:03;95168.41;;;27.13;52.46
28626;BME280;18905;42.668;23.364;2023-06-19T10:25:31;95150.44;;;26.75;54.02
28626;BME280;18905;42.668;23.364;2023-06-19T10:27:58;95136.44;;;26.29;53.34
28626;BME280;18905;42.668;23.364;2023-06-19T10:30:24;95156.28;;;26.24;57.07
28626;BME280;18905;42.668;23.364;2023-06-19T10:32:49;95165.03;;;26.79;58.31
28626;BME280;18905;42.668;23.364;2023-06-19T10:35:16;95117.41;;;26.61;55.96
28626;BME280;18905;42.668;23.364;2023-06-19T10:37:42;95158.00;;;26.41;59.51
28626;BME280;18905;42.668;23.364;2023-06-19T10:40:09;95132.88;;;26.55;57.25
28626;BME280;18905;42.668;23.364;2023-06-19T10:42:36;95144.13;;;27.24;54.22
28626;BME280;18905;42.668;23.364;2023-06-19T10:45:04;95160.22;;;26.53;52.83
28626;BME280;18905;42.668;23.364;2023-06-19T10:47:32;95164.19;;;27.05;52.12
28626;BME280;18905;42.668;23.364;2023-06-19T10:49:57;95165.97;;;26.69;52.35
28626;BME280;18905;42.668;23.364;2023-06-19T10:52:23;95157.22;;;26.97;53.17
28626;BME280;18905;42.668;23.364;2023-06-19T10:54:55;95121.47;;;26.79;49.64
28626;BME280;18905;42.668;23.364;2023-06-19T10:57:30;95156.84;;;27.18;54.05
28626;BME280;18905;42.668;23.364;2023-06-19T10:59:56;95145.31;;;26.43;54.57
28626;BME280;18905;42.668;23.364;2023-06-19T11:02:22;95151.50;;;26.54;55.44
28626;BME280;18905;42.668;23.364;2023-06-19T11:04:48;95166.38;;;26.67;53.21
28626;BME280;18905;42.668;23.364;2023-06-19T11:07:13;95124.69;;;25.88;57.83
28626;BME280;18905;42.668;23.364;2023-06-19T11:09:38;95139.84;;;26.70;57.72
28626;BME280;18905;42.668;23.364;2023-06-19T11:12:04;95119.00;;;27.08;55.59
28626;BME280;18905;42.668;23.364;2023-06-19T11:14:33;95116.84;;;26.16;56.35
28626;BME280;18905;42.668;23.364;2023-06-19T11:17:07;95154.41;;;26.17;58.96
28626;BME280;18905;42.668;23.364;2023-06-19T11:19:33;95115.19;;;25.89;61.43
28626;BME280;18905;42.668;23.364;2023-06-19T11:22:00;95111.69;;;25.51;63.49
28626;BME280;18905;42.668;23.364;2023-06-19T11:24:29;95151.47;;;25.98;63.11
28626;BME280;18905;42.668;23.364;2023-06-19T11:26:56;95106.91;;;25.55;64.93
28626;BME280;18905;42.668;23.364;2023-06-19T11:29:29;95146.78;;;25.91;65.48
28626;BME280;18905;42.668;23.364;2023-06-19T11:32:09;95105.09;;;25.75;63.12
28626;BME280;18905;42.668;23.364;2023-06-19T11:34:36;95069.16;;;26.05;66.16
28626;BME280;18905;42.668;23.364;2023-06-19T11:37:22;95144.97;;;26.71;59.29
28626;BME280;18905;42.668;23.364;2023-06-19T11:39:49;95132.25;;;27.23;57.37
28626;BME280;18905;42.668;23.364;2023-06-19T11:42:16;95130.25;;;27.24;60.00
28626;BME280;18905;42.668;23.364;2023-06-19T11:44:54;95097.50;;;26.92;59.92
28626;BME280;18905;42.668;23.364;2023-06-19T11:47:20;95101.84;;;26.93;61.64
28626;BME280;18905;42.668;23.364;2023-06-19T11:49:48;95119.00;;;27.08;66.10
28626;BME280;18905;42.668;23.364;2023-06-19T11:52:14;95096.28;;;27.39;64.87
28626;BME280;18905;42.668;23.364;2023-06-19T11:54:40;95128.94;;;27.51;62.47
28626;BME280;18905;42.668;23.364;2023-06-19T11:57:05;95103.03;;;26.69;64.46
28626;BME280;18905;42.668;23.364;2023-06-19T11:59:31;95109.88;;;26.88;62.24
28626;BME280;18905;42.668;23.364;2023-06-19T12:01:56;95127.59;;;26.67;64.45
28626;BME280;18905;42.668;23.364;2023-06-19T12:04:23;95123.88;;;26.51;65.06
28626;BME280;18905;42.668;23.364;2023-06-19T12:06:49;95099.53;;;26.39;66.15
28626;BME280;18905;42.668;23.364;2023-06-19T12:09:14;95096.19;;;26.51;66.17
28626;BME280;18905;42.668;23.364;2023-06-19T12:11:40;95078.81;;;26.20;68.75
28626;BME280;18905;42.668;23.364;2023-06-19T12:14:05;95098.25;;;26.17;67.99
28626;BME280;18905;42.668;23.364;2023-06-19T12:16:31;95121.41;;;26.60;75.62
28626;BME280;18905;42.668;23.364;2023-06-19T12:18:56;95097.47;;;26.16;74.83
28626;BME280;18905;42.668;23.364;2023-06-19T12:21:22;95125.00;;;26.57;69.42
28626;BME280;18905;42.668;23.364;2023-06-19T12:23:48;95077.78;;;26.11;68.99
28626;BME280;18905;42.668;23.364;2023-06-19T12:26:13;95116.59;;;26.34;73.07
28626;BME280;18905;42.668;23.364;2023-06-19T12:28:38;95058.00;;;26.12;69.82
28626;BME280;18905;42.668;23.364;2023-06-19T12:31:04;95073.25;;;26.24;66.69
28626;BME280;18905;42.668;23.364;2023-06-19T12:33:29;95098.91;;;26.28;71.63
28626;BME280;18905;42.668;23.364;2023-06-19T12:35:58;95053.25;;;25.83;69.13
28626;BME280;18905;42.668;23.364;2023-06-19T12:38:23;95107.25;;;25.91;70.86
28626;BME280;18905;42.668;23.364;2023-06-19T12:40:49;95081.22;;;25.88;75.49
28626;BME280;18905;42.668;23.364;2023-06-19T12:43:14;95106.38;;;26.84;71.88
28626;BME280;18905;42.668;23.364;2023-06-19T12:45:39;95094.81;;;27.35;65.68
28626;BME280;18905;42.668;23.364;2023-06-19T12:48:07;95095.44;;;26.73;63.13
28626;BME280;18905;42.668;23.364;2023-06-19T12:50:32;95080.69;;;26.57;72.17